Time;durP1;ratioP1;P1;durP2;ratioP2;P2;SDS_P1;SDS_P2;PMS_P1;PMS_P2;Temp;Humidity;BMP_temperature;BMP_pressure;BME280_temperature;BME280_humidity;BME280_pressure;Samples;Min_cycle;Max_cycle;Signal;HPM_P1;HPM_P2
2022/10/04 00:01:42;;;;;;;16.55;7.88;;;8.60;99.90;;;;;;5092628;28;20447;-57
2022/10/04 00:04:23;;;;;;;17.15;8.20;;;8.50;99.90;;;;;;5092118;28;20480;-57
2022/10/04 00:07:03;;;;;;;17.93;7.53;;;8.60;99.90;;;;;;5092124;28;20378;-57
2022/10/04 00:09:35;;;;;;;16.70;7.70;;;8.60;99.90;;;;;;5091916;28;20378;-57
2022/10/04 00:12:03;;;;;;;19.33;8.65;;;8.60;99.90;;;;;;5091780;28;20393;-57
2022/10/04 00:14:34;;;;;;;18.17;9.02;;;8.70;99.90;;;;;;5092185;28;20754;-57
2022/10/04 00:17:11;;;;;;;16.13;8.63;;;8.70;99.90;;;;;;5091656;28;20428;-57
2022/10/04 00:19:43;;;;;;;18.42;8.10;;;8.70;99.90;;;;;;5092199;28;20444;-57
2022/10/04 00:22:16;;;;;;;19.73;8.57;;;8.70;99.90;;;;;;5091534;28;20461;-57
2022/10/04 00:25:06;;;;;;;19.20;8.67;;;8.70;99.90;;;;;;5092359;28;20378;-57
2022/10/04 00:27:34;;;;;;;19.10;8.00;;;8.70;99.90;;;;;;5092295;28;20378;-57
2022/10/04 00:30:03;;;;;;;17.25;8.00;;;8.60;99.90;;;;;;5091520;28;20386;-57
2022/10/04 00:32:38;;;;;;;16.38;7.95;;;8.60;99.90;;;;;;5091842;28;20405;-57
2022/10/04 00:35:23;;;;;;;15.82;7.95;;;8.50;99.90;;;;;;5091158;28;20883;-57
2022/10/04 00:38:20;;;;;;;15.48;7.80;;;8.40;99.90;;;;;;5091191;28;20370;-57
2022/10/04 00:41:10;;;;;;;15.97;7.93;;;8.30;99.90;;;;;;5090894;28;20386;-54
2022/10/04 00:43:42;;;;;;;17.30;7.80;;;8.20;99.90;;;;;;5091048;28;20891;-54
2022/10/04 00:46:17;;;;;;;15.80;7.95;;;8.20;99.90;;;;;;5091029;28;20877;-54
2022/10/04 00:49:02;;;;;;;18.02;8.90;;;8.20;99.90;;;;;;5091769;28;20859;-54
2022/10/04 00:51:33;;;;;;;24.42;8.70;;;8.30;99.90;;;;;;5091849;28;20418;-57
2022/10/04 00:54:22;;;;;;;20.23;8.90;;;8.40;99.90;;;;;;5090842;28;20914;-54
2022/10/04 00:56:51;;;;;;;20.10;9.30;;;8.40;99.90;;;;;;5091701;28;20401;-55
2022/10/04 00:59:38;;;;;;;17.35;8.73;;;8.40;99.90;;;;;;5090729;28;20382;-55
2022/10/04 01:02:06;;;;;;;20.15;9.10;;;8.80;99.90;;;;;;5083425;28;20489;-55
2022/10/04 01:04:48;;;;;;;19.23;9.60;;;8.30;99.90;;;;;;5073819;28;20395;-55
2022/10/04 01:07:17;;;;;;;18.33;9.13;;;8.40;99.90;;;;;;5070563;28;20380;-56
2022/10/04 01:09:58;;;;;;;21.27;8.82;;;8.40;99.90;;;;;;5071089;28;20464;-55
2022/10/04 01:12:35;;;;;;;19.17;8.53;;;8.40;99.90;;;;;;5070665;28;20767;-55
2022/10/04 01:15:03;;;;;;;23.98;9.15;;;8.30;99.90;;;;;;5086055;28;20421;-56
2022/10/04 01:17:29;;;;;;;18.25;8.68;;;8.30;99.90;;;;;;5070916;28;20479;-55
2022/10/04 01:19:55;;;;;;;16.00;8.07;;;8.40;99.90;;;;;;5070180;28;20419;-57
2022/10/04 01:22:43;;;;;;;16.13;8.27;;;8.20;99.90;;;;;;5070837;28;20415;-55
2022/10/04 01:25:09;;;;;;;19.85;7.72;;;8.10;99.90;;;;;;5069900;28;20392;-56
2022/10/04 01:27:40;;;;;;;17.73;7.47;;;8.00;99.90;;;;;;5070681;28;20378;-55
2022/10/04 01:30:15;;;;;;;15.48;7.80;;;7.90;99.90;;;;;;5069451;28;20733;-55
2022/10/04 01:32:41;;;;;;;18.10;8.20;;;8.60;99.90;;;;;;5070316;28;20455;-55
2022/10/04 01:35:12;;;;;;;18.80;8.63;;;7.80;99.90;;;;;;5069884;28;20886;-55
2022/10/04 01:37:38;;;;;;;15.80;7.90;;;7.80;99.90;;;;;;5070904;28;20399;-55
2022/10/04 01:40:09;;;;;;;18.98;8.73;;;7.90;99.90;;;;;;5069654;28;20391;-55
2022/10/04 01:42:43;;;;;;;20.13;9.10;;;7.90;99.90;;;;;;5070474;28;20372;-55
2022/10/04 01:45:27;;;;;;;20.73;9.00;;;7.90;99.90;;;;;;5069891;28;20380;-55
2022/10/04 01:48:00;;;;;;;20.63;9.63;;;8.70;99.90;;;;;;5069995;28;20376;-56
2022/10/04 01:50:30;;;;;;;19.63;9.50;;;7.90;99.90;;;;;;5069269;28;20702;-55
2022/10/04 01:53:07;;;;;;;23.02;8.98;;;9.80;99.90;;;;;;5069209;28;20530;-57
2022/10/04 01:55:36;;;;;;;19.73;8.73;;;8.00;99.90;;;;;;5069755;28;20383;-55
2022/10/04 01:58:17;;;;;;;18.67;8.73;;;9.20;99.90;;;;;;5051341;28;20478;-56
2022/10/04 02:01:01;;;;;;;21.10;8.82;;;7.70;99.90;;;;;;5069821;28;20999;-55
2022/10/04 02:03:39;;;;;;;20.05;9.68;;;7.80;99.90;;;;;;5070032;28;20813;-55
2022/10/04 02:06:07;;;;;;;24.90;8.57;;;8.30;99.90;;;;;;5069179;28;20433;-55
2022/10/04 02:08:38;;;;;;;18.52;9.10;;;7.80;99.90;;;;;;5069815;28;20383;-55
2022/10/04 02:11:05;;;;;;;18.33;8.88;;;8.00;99.90;;;;;;5069014;28;20738;-55
2022/10/04 02:13:38;;;;;;;17.35;8.63;;;7.80;99.90;;;;;;5069522;28;20792;-55
2022/10/04 02:16:09;;;;;;;17.15;8.73;;;7.80;99.90;;;;;;5069085;28;20474;-55
2022/10/04 02:18:38;;;;;;;18.05;8.32;;;8.50;99.90;;;;;;5069649;28;20400;-55
2022/10/04 02:21:05;;;;;;;17.95;8.68;;;9.60;99.90;;;;;;5068711;28;20857;-55
2022/10/04 02:23:32;;;;;;;21.75;9.13;;;7.70;99.90;;;;;;5069750;28;20395;-55
2022/10/04 02:25:58;;;;;;;20.10;8.63;;;7.60;99.90;;;;;;5069129;28;20849;-56
2022/10/04 02:28:24;;;;;;;17.52;8.40;;;9.60;99.90;;;;;;5069759;28;20431;-55
2022/10/04 02:33:42;;;;;;;16.20;8.27;;;9.30;99.90;;;;;;5069463;28;20749;-55
2022/10/04 02:36:09;;;;;;;22.42;8.45;;;7.60;99.90;;;;;;5068636;28;20388;-55
2022/10/04 02:38:40;;;;;;;17.67;8.77;;;7.70;99.90;;;;;;5069444;28;20388;-55
2022/10/04 02:41:25;;;;;;;23.10;9.83;;;9.00;99.90;;;;;;5068905;28;20380;-55
2022/10/04 02:44:10;;;;;;;17.25;9.10;;;7.70;99.90;;;;;;5069384;28;20860;-55
2022/10/04 02:46:56;;;;;;;21.48;8.73;;;7.70;99.90;;;;;;5069408;28;20394;-55
2022/10/04 02:49:36;;;;;;;18.33;8.77;;;7.70;99.90;;;;;;5068938;28;20403;-55
2022/10/04 02:52:19;;;;;;;18.48;8.55;;;7.70;99.90;;;;;;5068651;28;20423;-55
2022/10/04 02:55:14;;;;;;;18.35;8.77;;;7.70;99.90;;;;;;5069164;28;20387;-55
2022/10/04 02:57:41;;;;;;;13.30;7.55;;;7.60;99.90;;;;;;5069377;28;20420;-55
2022/10/04 03:00:21;;;;;;;18.40;8.48;;;7.60;99.90;;;;;;5068391;28;20380;-55
2022/10/04 03:03:12;;;;;;;17.08;8.00;;;7.70;99.90;;;;;;5073760;28;20392;-55
2022/10/04 03:05:39;;;;;;;17.93;8.97;;;7.70;99.90;;;;;;5073238;28;20776;-55
2022/10/04 03:08:05;;;;;;;19.60;8.40;;;7.70;99.90;;;;;;5072310;28;20393;-55
2022/10/04 03:10:31;;;;;;;17.00;8.10;;;7.70;99.90;;;;;;5073412;28;20401;-55
2022/10/04 03:12:57;;;;;;;20.47;9.10;;;7.70;99.90;;;;;;5072870;28;20460;-57
2022/10/04 03:15:23;;;;;;;20.17;8.70;;;7.70;99.90;;;;;;5073327;28;20376;-55
2022/10/04 03:17:49;;;;;;;17.65;8.15;;;8.00;99.90;;;;;;5073359;28;20375;-55
2022/10/04 03:20:20;;;;;;;18.40;8.50;;;7.70;99.90;;;;;;5072029;28;20444;-55
2022/10/04 03:22:49;;;;;;;20.23;9.43;;;8.40;99.90;;;;;;5055366;28;20745;-55
2022/10/04 03:25:20;;;;;;;17.83;8.10;;;7.70;99.90;;;;;;5072245;28;20410;-55
2022/10/04 03:27:48;;;;;;;20.30;8.45;;;7.70;99.90;;;;;;5073185;28;20379;-55
2022/10/04 03:30:15;;;;;;;16.80;8.63;;;7.80;99.90;;;;;;5072257;28;20384;-56
2022/10/04 03:32:41;;;;;;;19.40;8.82;;;7.80;99.90;;;;;;5089362;28;20539;-55
2022/10/04 03:35:27;;;;;;;18.27;8.70;;;7.60;99.90;;;;;;5092416;28;20374;-55
2022/10/04 03:37:55;;;;;;;18.60;8.60;;;7.70;99.90;;;;;;5088291;28;20472;-55
2022/10/04 03:40:26;;;;;;;20.25;9.35;;;8.90;99.90;;;;;;5091184;28;20382;-55
2022/10/04 03:42:52;;;;;;;20.05;9.18;;;7.70;99.90;;;;;;5092209;28;20752;-55
2022/10/04 03:45:19;;;;;;;24.67;8.27;;;7.70;99.90;;;;;;5090162;28;20388;-55
2022/10/04 03:47:47;;;;;;;18.65;8.85;;;9.20;99.90;;;;;;5087955;28;20806;-56
2022/10/04 03:50:26;;;;;;;20.10;8.90;;;7.60;99.90;;;;;;5091727;28;20477;-55
2022/10/04 03:53:06;;;;;;;17.40;8.50;;;7.60;99.90;;;;;;5089661;28;20902;-55
2022/10/04 03:55:36;;;;;;;19.73;8.75;;;8.10;99.90;;;;;;5089551;28;20427;-55
2022/10/04 03:58:03;;;;;;;17.27;8.70;;;7.50;99.90;;;;;;5091646;28;20374;-55
2022/10/04 04:00:29;;;;;;;17.83;8.35;;;7.60;99.90;;;;;;5089410;28;20399;-55
2022/10/04 04:03:01;;;;;;;19.45;7.88;;;7.50;99.90;;;;;;5084590;28;20950;-56
2022/10/04 04:05:39;;;;;;;19.08;8.20;;;7.60;99.90;;;;;;5092481;28;20468;-55
2022/10/04 04:08:39;;;;;;;18.25;8.70;;;7.90;99.90;;;;;;5091766;28;20393;-55
2022/10/04 04:11:06;;;;;;;18.70;8.83;;;7.60;99.90;;;;;;5092033;28;20385;-55
2022/10/04 04:14:08;;;;;;;21.42;9.32;;;8.80;99.90;;;;;;5091300;28;20503;-55
2022/10/04 04:16:36;;;;;;;17.45;8.43;;;7.50;99.90;;;;;;5091625;28;20872;-55
2022/10/04 04:19:04;;;;;;;21.52;8.93;;;7.50;99.90;;;;;;5083478;28;20437;-55
2022/10/04 04:21:30;;;;;;;18.33;7.97;;;7.50;99.90;;;;;;5076359;28;20400;-55
2022/10/04 04:24:01;;;;;;;18.13;8.68;;;9.00;99.90;;;;;;5071899;28;20395;-56
2022/10/04 04:26:38;;;;;;;18.35;8.35;;;7.40;99.90;;;;;;5071679;28;20371;-55
2022/10/04 04:29:05;;;;;;;18.70;9.20;;;7.40;99.90;;;;;;5081107;28;20390;-55
2022/10/04 04:31:35;;;;;;;19.50;8.30;;;7.40;99.90;;;;;;5092136;28;20417;-55
2022/10/04 04:34:14;;;;;;;16.48;8.43;;;7.40;99.90;;;;;;5091130;28;20406;-55
2022/10/04 04:36:40;;;;;;;17.38;8.35;;;7.50;99.90;;;;;;5091705;28;20375;-55
2022/10/04 04:39:36;;;;;;;21.23;8.55;;;7.60;99.90;;;;;;5090937;28;20389;-55
2022/10/04 04:42:09;;;;;;;18.97;9.37;;;7.60;99.90;;;;;;5088816;28;20399;-55
2022/10/04 04:44:56;;;;;;;17.58;8.10;;;7.60;99.90;;;;;;5087400;28;20930;-55
2022/10/04 04:47:30;;;;;;;17.60;9.27;;;7.60;99.90;;;;;;5082834;28;20791;-55
2022/10/04 04:50:02;;;;;;;17.27;8.65;;;7.60;99.90;;;;;;5075667;28;20416;-56
2022/10/04 04:52:28;;;;;;;19.35;8.95;;;7.50;99.90;;;;;;5080091;28;20432;-55
2022/10/04 04:54:55;;;;;;;19.15;8.75;;;7.60;99.90;;;;;;5091471;28;20375;-55
2022/10/04 04:57:21;;;;;;;16.30;8.70;;;7.40;99.90;;;;;;5090875;28;20378;-55
2022/10/04 04:59:54;;;;;;;18.80;9.43;;;7.40;99.90;;;;;;5091334;28;20444;-55
2022/10/04 05:02:36;;;;;;;19.25;8.40;;;7.30;99.90;;;;;;5088010;28;20774;-55
2022/10/04 05:05:25;;;;;;;22.90;8.80;;;7.30;99.90;;;;;;5085930;28;20484;-55
2022/10/04 05:08:12;;;;;;;19.08;9.15;;;7.30;99.90;;;;;;5090762;28;20402;-55
2022/10/04 05:10:56;;;;;;;15.98;7.95;;;7.40;99.90;;;;;;5091300;28;20378;-55
2022/10/04 05:13:39;;;;;;;21.00;8.83;;;7.50;99.90;;;;;;5086487;28;20414;-55
2022/10/04 05:16:12;;;;;;;19.00;9.10;;;9.50;99.90;;;;;;5086281;28;20390;-55
2022/10/04 05:18:38;;;;;;;18.20;8.70;;;7.60;99.90;;;;;;5081804;28;20408;-55
2022/10/04 05:21:25;;;;;;;16.77;8.67;;;7.60;99.90;;;;;;5088627;28;20520;-56
2022/10/04 05:23:51;;;;;;;15.70;8.70;;;7.50;99.90;;;;;;5090277;28;20382;-55
2022/10/04 05:26:29;;;;;;;22.75;9.68;;;7.40;99.90;;;;;;5090282;28;21077;-55
2022/10/04 05:29:00;;;;;;;19.02;8.50;;;7.40;99.90;;;;;;5091031;28;20406;-55
2022/10/04 05:31:45;;;;;;;17.13;8.88;;;7.50;99.90;;;;;;5090925;28;20413;-55
2022/10/04 05:34:26;;;;;;;17.63;9.43;;;7.80;99.90;;;;;;5090103;28;20902;-55
2022/10/04 05:36:51;;;;;;;17.10;8.95;;;7.60;99.90;;;;;;5090900;28;20375;-55
2022/10/04 05:39:35;;;;;;;19.15;8.80;;;9.40;99.90;;;;;;5090492;28;20378;-55
2022/10/04 05:42:20;;;;;;;16.90;8.60;;;7.50;99.90;;;;;;5090049;28;20378;-56
2022/10/04 05:44:50;;;;;;;18.98;8.77;;;8.90;99.90;;;;;;5091165;28;20435;-55
2022/10/04 05:47:21;;;;;;;21.92;9.25;;;7.60;99.90;;;;;;5090126;28;20408;-55
2022/10/04 05:49:47;;;;;;;18.95;8.80;;;7.60;99.90;;;;;;5072557;28;20878;-55
2022/10/04 05:52:23;;;;;;;19.77;9.20;;;7.70;99.90;;;;;;5089763;28;20371;-55
2022/10/04 05:55:11;;;;;;;20.50;9.43;;;7.80;99.90;;;;;;5090601;28;20506;-55
2022/10/04 05:58:01;;;;;;;19.08;8.18;;;7.80;99.90;;;;;;5090631;28;20371;-55
2022/10/04 06:00:56;;;;;;;14.63;7.53;;;7.90;99.90;;;;;;5089937;28;20756;-55
2022/10/04 06:03:48;;;;;;;20.02;8.77;;;8.00;99.90;;;;;;5102604;28;20390;-56
2022/10/04 06:06:48;;;;;;;15.90;8.63;;;7.90;99.90;;;;;;5084168;28;20501;-55
2022/10/04 06:09:50;;;;;;;18.60;7.80;;;8.00;99.90;;;;;;5047177;28;20473;-55
2022/10/04 06:12:41;;;;;;;17.83;8.55;;;8.10;99.90;;;;;;5089398;28;20831;-55
2022/10/04 06:15:44;;;;;;;19.90;8.60;;;9.70;99.90;;;;;;5055060;28;20399;-55
2022/10/04 06:18:12;;;;;;;17.67;8.50;;;8.20;99.90;;;;;;5069114;28;20391;-55
2022/10/04 06:21:08;;;;;;;15.45;7.90;;;8.70;99.90;;;;;;5069842;28;20391;-55
2022/10/04 06:23:42;;;;;;;16.88;8.52;;;8.40;99.90;;;;;;5086457;28;20390;-55
2022/10/04 06:26:20;;;;;;;15.93;8.13;;;8.60;99.90;;;;;;5089146;28;20366;-55
2022/10/04 06:28:50;;;;;;;17.15;8.40;;;9.70;99.90;;;;;;5089870;28;20461;-55
2022/10/04 06:31:41;;;;;;;19.23;8.70;;;9.80;99.90;;;;;;5089128;28;20412;-55
2022/10/04 06:34:16;;;;;;;14.70;7.07;;;9.00;99.90;;;;;;5089173;28;20413;-56
2022/10/04 06:37:14;;;;;;;14.40;8.50;;;8.90;99.90;;;;;;5089137;28;20391;-56
2022/10/04 06:40:16;;;;;;;18.35;9.23;;;9.10;99.90;;;;;;5089829;28;20492;-57
2022/10/04 06:42:43;;;;;;;17.77;8.53;;;9.10;99.90;;;;;;5089728;28;20378;-56
2022/10/04 06:45:30;;;;;;;16.58;8.30;;;9.20;99.90;;;;;;5084824;28;20390;-56
2022/10/04 06:48:21;;;;;;;18.35;8.10;;;9.40;99.90;;;;;;5085327;28;20379;-56
2022/10/04 06:50:56;;;;;;;19.23;9.15;;;9.60;99.90;;;;;;5090186;28;20392;-56
2022/10/04 06:53:36;;;;;;;16.00;7.95;;;9.80;99.90;;;;;;5088418;28;20455;-56
2022/10/04 06:56:24;;;;;;;14.07;7.70;;;10.00;99.90;;;;;;5074187;28;20491;-57
2022/10/04 06:59:09;;;;;;;17.42;8.68;;;10.00;99.90;;;;;;5086182;28;20890;-56
2022/10/04 07:01:45;;;;;;;20.02;9.80;;;10.20;99.90;;;;;;5087522;28;20531;-56
2022/10/04 07:04:35;;;;;;;16.35;8.60;;;10.40;99.90;;;;;;5086090;28;20382;-56
2022/10/04 07:07:25;;;;;;;15.13;8.13;;;10.60;99.90;;;;;;5087337;28;20409;-57
2022/10/04 07:10:02;;;;;;;14.90;7.40;;;10.60;18.70;;;;;;5088535;28;20417;-57
2022/10/04 07:12:30;;;;;;;15.03;7.67;;;10.50;31.40;;;;;;5086131;28;20386;-56
2022/10/04 07:15:02;;;;;;;17.05;8.90;;;10.50;32.70;;;;;;5087283;28;20410;-56
2022/10/04 07:17:38;;;;;;;15.00;8.00;;;10.60;23.30;;;;;;5084362;28;20428;-56
2022/10/04 07:20:06;;;;;;;17.10;8.23;;;10.60;15.30;;;;;;5081799;28;20378;-57
2022/10/04 07:22:42;;;;;;;16.33;7.60;;;10.70;20.00;;;;;;5087780;28;20382;-57
2022/10/04 07:25:18;;;;;;;13.68;7.57;;;10.80;1.00;;;;;;5085947;28;20381;-56
2022/10/04 07:31:02;;;;;;;12.30;6.80;;;11.20;1.00;;;;;;5068382;28;20434;-56
2022/10/04 07:33:31;;;;;;;14.43;6.65;;;11.20;1.00;;;;;;5068610;28;20899;-56
2022/10/04 07:36:09;;;;;;;13.32;6.97;;;11.00;1.00;;;;;;5075507;28;20894;-56
2022/10/04 07:38:44;;;;;;;15.93;7.20;;;11.10;1.00;;;;;;5087007;28;20423;-57
2022/10/04 07:41:20;;;;;;;13.90;6.90;;;11.40;1.00;;;;;;5086920;28;20374;-56
2022/10/04 07:43:51;;;;;;;13.67;7.63;;;12.00;1.00;;;;;;5084754;28;20378;-54
2022/10/04 07:46:36;;;;;;;13.73;6.93;;;12.60;1.00;;;;;;5082648;28;20405;-54
2022/10/04 07:49:02;;;;;;;12.90;6.55;;;12.90;41.10;;;;;;5087186;28;20462;-55
2022/10/04 07:51:38;;;;;;;13.80;6.70;;;12.90;1.00;;;;;;5085646;28;20416;-55
2022/10/04 07:54:18;;;;;;;16.30;7.20;;;12.80;99.90;;;;;;5087882;28;20402;-55
2022/10/04 07:56:53;;;;;;;12.93;7.13;;;12.50;1.00;;;;;;5087162;28;20871;-54
2022/10/04 07:59:31;;;;;;;13.25;6.60;;;12.10;99.90;;;;;;5089167;28;20413;-55
2022/10/04 08:02:25;;;;;;;16.33;7.35;;;12.00;99.90;;;;;;5089904;28;20406;-55
2022/10/04 08:05:16;;;;;;;12.73;6.33;;;12.20;99.90;;;;;;5088684;28;20414;-55
2022/10/04 08:08:13;;;;;;;16.45;6.55;;;12.20;58.60;;;;;;5090574;28;20378;-55
2022/10/04 08:11:08;;;;;;;14.60;6.82;;;12.20;70.70;;;;;;5089754;28;20427;-55
2022/10/04 08:13:49;;;;;;;12.18;5.93;;;12.10;99.90;;;;;;5090819;28;20468;-55
2022/10/04 08:16:37;;;;;;;11.60;5.95;;;12.00;99.90;;;;;;5091345;28;20414;-55
2022/10/04 08:19:19;;;;;;;12.98;6.22;;;12.00;99.90;;;;;;5073096;28;20780;-56
2022/10/04 08:21:51;;;;;;;13.27;5.30;;;12.00;99.90;;;;;;5084216;28;20485;-56
2022/10/04 08:24:36;;;;;;;14.20;6.10;;;12.20;99.90;;;;;;5080642;28;20554;-56
2022/10/04 08:27:19;;;;;;;12.50;6.03;;;12.80;99.90;;;;;;5086010;28;20375;-57
2022/10/04 08:30:03;;;;;;;11.60;5.82;;;13.50;1.00;;;;;;5090761;28;20941;-56
2022/10/04 08:32:46;;;;;;;11.60;5.57;;;14.90;1.00;;;;;;5088812;28;20554;-57
2022/10/04 08:35:43;;;;;;;13.70;6.10;;;16.00;99.90;;;;;;5091014;28;20386;-57
2022/10/04 08:38:33;;;;;;;11.70;5.40;;;17.10;99.90;;;;;;5090900;28;20912;-57
2022/10/04 08:41:14;;;;;;;11.80;5.53;;;17.30;1.00;;;;;;5090152;28;20398;-57
2022/10/04 08:43:58;;;;;;;12.82;5.30;;;17.60;1.00;;;;;;5085443;28;20443;-57
2022/10/04 08:47:04;;;;;;;10.38;5.25;;;17.30;1.00;;;;;;5089872;28;20386;-57
2022/10/04 08:49:51;;;;;;;12.75;5.05;;;17.10;1.00;;;;;;5088995;28;20400;-57
2022/10/04 08:52:50;;;;;;;12.73;5.30;;;17.80;1.00;;;;;;5086309;28;20386;-57
2022/10/04 08:55:47;;;;;;;10.30;5.60;;;18.80;1.00;;;;;;5088069;28;20421;-57
2022/10/04 08:58:24;;;;;;;9.50;4.60;;;19.60;1.00;;;;;;5089545;28;20466;-57
2022/10/04 09:01:11;;;;;;;11.45;4.75;;;20.40;1.00;;;;;;5088360;28;20397;-57
2022/10/04 09:04:00;;;;;;;11.18;5.35;;;21.20;99.90;;;;;;5085182;28;20406;-58
2022/10/04 09:06:35;;;;;;;9.90;4.80;;;22.20;99.90;;;;;;5085644;28;20375;-57
2022/10/04 09:09:39;;;;;;;8.70;4.70;;;22.60;99.90;;;;;;5088618;28;20943;-58
2022/10/04 09:12:15;;;;;;;11.32;6.00;;;;;;;;;;5085472;28;20477;-58
2022/10/04 09:14:47;;;;;;;13.30;8.07;;;22.50;99.90;;;;;;5091163;28;20406;-57
2022/10/04 09:17:49;;;;;;;11.23;9.88;;;23.30;99.90;;;;;;5090037;28;20383;-57
2022/10/04 09:20:21;;;;;;;11.57;5.00;;;23.60;99.90;;;;;;5090436;28;20393;-57
2022/10/04 09:23:20;;;;;;;12.60;5.20;;;23.60;99.90;;;;;;5083125;28;20417;-58
2022/10/04 09:26:20;;;;;;;9.27;4.43;;;23.30;99.90;;;;;;5068818;28;20402;-58
2022/10/04 09:29:20;;;;;;;11.60;5.00;;;23.10;99.90;;;;;;5084815;28;20378;-58
2022/10/04 09:31:58;;;;;;;12.88;4.70;;;22.90;99.90;;;;;;5089241;28;20435;-58
2022/10/04 09:35:05;;;;;;;10.70;4.90;;;22.70;99.90;;;;;;5088065;28;20410;-57
2022/10/04 09:37:40;;;;;;;9.70;5.10;;;22.70;99.90;;;;;;5055659;28;20460;-58
2022/10/04 09:40:27;;;;;;;10.88;4.28;;;22.30;99.90;;;;;;5088675;28;20371;-58
2022/10/04 09:43:20;;;;;;;10.18;4.60;;;21.80;99.90;;;;;;5089380;28;20402;-58
2022/10/04 09:45:54;;;;;;;9.68;4.43;;;21.30;99.90;;;;;;5089078;28;20381;-57
2022/10/04 09:48:35;;;;;;;11.10;4.77;;;21.10;99.90;;;;;;5089450;28;20938;-57
2022/10/04 09:51:19;;;;;;;13.13;5.00;;;20.20;99.90;;;;;;5088615;28;20493;-58
2022/10/04 09:54:37;;;;;;;10.70;4.65;;;20.10;99.90;;;;;;5086851;28;20951;-57
2022/10/04 09:57:14;;;;;;;9.95;5.10;;;20.70;99.90;;;;;;5063242;28;20394;-59
2022/10/04 10:00:20;;;;;;;9.63;4.93;;;20.80;99.90;;;;;;5087210;28;20382;-57
2022/10/04 10:03:11;;;;;;;9.65;4.45;;;21.30;99.90;;;;;;5075161;28;20910;-58
2022/10/04 10:06:22;;;;;;;10.70;4.97;;;21.10;99.90;;;;;;5087083;28;20493;-58
2022/10/04 10:09:07;;;;;;;10.40;4.25;;;21.20;99.90;;;;;;5054206;28;20413;-58
2022/10/04 10:15:24;;;;;;;10.00;4.50;;;21.90;99.90;;;;;;5057925;28;20442;-59
2022/10/04 10:18:01;;;;;;;8.48;4.30;;;22.00;99.90;;;;;;5089718;28;20382;-58
2022/10/04 10:21:08;;;;;;;11.57;5.30;;;22.00;99.90;;;;;;5089667;28;20378;-58
2022/10/04 10:23:54;;;;;;;10.37;4.77;;;22.80;99.90;;;;;;5077685;28;20414;-58
2022/10/04 10:26:36;;;;;;;9.35;4.80;;;22.90;99.90;;;;;;5086131;28;20629;-58
2022/10/04 10:29:31;;;;;;;9.93;6.20;;;23.20;99.90;;;;;;5069339;28;20375;-59
2022/10/04 10:32:03;;;;;;;9.90;5.70;;;23.00;99.90;;;;;;5069384;28;20416;-58
2022/10/04 10:34:43;;;;;;;9.32;5.75;;;23.10;99.90;;;;;;5069604;28;20420;-58
2022/10/04 10:37:29;;;;;;;10.93;6.05;;;23.00;99.90;;;;;;5069055;28;20384;-58
2022/10/04 10:40:21;;;;;;;10.30;5.50;;;23.20;99.90;;;;;;5088033;28;20871;-58
2022/10/04 10:43:05;;;;;;;10.03;4.90;;;22.10;99.90;;;;;;5086558;28;20394;-58
2022/10/04 10:45:58;;;;;;;10.55;4.25;;;21.20;99.90;;;;;;5084611;28;20395;-58
2022/10/04 10:48:26;;;;;;;10.80;4.45;;;21.40;99.90;;;;;;5086668;28;20803;-57
2022/10/04 10:51:12;;;;;;;10.00;4.72;;;21.40;99.90;;;;;;5088786;28;20896;-57
2022/10/04 10:53:59;;;;;;;8.73;4.20;;;21.30;99.90;;;;;;5087360;28;20409;-57
2022/10/04 10:56:33;;;;;;;9.55;4.70;;;20.90;99.90;;;;;;5083171;28;20378;-58
2022/10/04 10:59:17;;;;;;;10.30;4.20;;;20.60;99.90;;;;;;5085860;28;20379;-58
2022/10/04 11:02:04;;;;;;;9.63;4.40;;;20.60;99.90;;;;;;5082941;28;20974;-58
2022/10/04 11:04:48;;;;;;;9.13;4.27;;;22.20;99.90;;;;;;5088412;28;20410;-57
2022/10/04 11:07:33;;;;;;;8.30;4.18;;;23.50;99.90;;;;;;5085548;28;20411;-58
2022/10/04 11:09:58;;;;;;;10.77;3.92;;;24.00;99.90;;;;;;5086610;28;20386;-58
2022/10/04 11:12:30;;;;;;;8.17;3.70;;;24.00;99.90;;;;;;5087815;28;20386;-58
2022/10/04 11:15:33;;;;;;;10.52;4.10;;;23.70;99.90;;;;;;5086211;28;20406;-57
2022/10/04 11:18:06;;;;;;;9.20;4.00;;;23.00;99.90;;;;;;5086986;28;20805;-57
2022/10/04 11:20:50;;;;;;;9.57;4.07;;;22.30;99.90;;;;;;5088935;28;20413;-57
2022/10/04 11:23:52;;;;;;;8.98;3.78;;;21.40;99.90;;;;;;5089189;28;20419;-57
2022/10/04 11:26:47;;;;;;;9.95;3.80;;;20.70;99.90;;;;;;5089719;28;20389;-57
2022/10/04 11:29:26;;;;;;;9.50;4.30;;;19.80;99.90;;;;;;5091807;28;20378;-57
2022/10/04 11:32:01;;;;;;;9.20;4.00;;;19.70;99.90;;;;;;5092462;28;20414;-57
2022/10/04 11:35:04;;;;;;;11.27;4.00;;;19.50;99.90;;;;;;5092149;28;20531;-57
2022/10/04 11:38:01;;;;;;;8.98;3.83;;;19.50;99.90;;;;;;5030956;28;20422;-57
2022/10/04 11:40:48;;;;;;;7.93;3.25;;;19.70;99.90;;;;;;5090321;28;20389;-57
2022/10/04 11:43:34;;;;;;;7.93;3.70;;;20.00;99.90;;;;;;5092203;28;20434;-57
2022/10/04 11:46:06;;;;;;;10.30;3.80;;;20.00;99.90;;;;;;5086897;28;20429;-57
2022/10/04 11:48:43;;;;;;;10.80;3.40;;;20.30;99.90;;;;;;5092453;28;20377;-56
2022/10/04 11:51:34;;;;;;;8.68;3.30;;;20.20;99.90;;;;;;5091641;28;20377;-57
2022/10/04 11:54:16;;;;;;;12.52;3.42;;;20.50;99.90;;;;;;5091817;28;20412;-57
2022/10/04 11:57:06;;;;;;;9.23;3.25;;;20.70;99.90;;;;;;5092873;28;20445;-57
2022/10/04 11:59:43;;;;;;;8.65;3.50;;;21.10;99.90;;;;;;5092470;28;20841;-57
2022/10/04 12:02:40;;;;;;;7.60;3.20;;;21.10;99.90;;;;;;5092448;28;20390;-58
2022/10/04 12:05:37;;;;;;;7.55;3.33;;;21.40;99.90;;;;;;5091774;28;20470;-58
2022/10/04 12:08:40;;;;;;;8.00;3.47;;;21.30;99.90;;;;;;5092126;28;20363;-58
2022/10/04 12:15:10;;;;;;;7.63;3.47;;;21.00;99.90;;;;;;5084381;28;20436;-58
2022/10/04 12:18:17;;;;;;;8.15;3.67;;;21.10;99.90;;;;;;5077753;28;20788;-57
2022/10/04 12:21:20;;;;;;;12.30;4.00;;;21.10;99.90;;;;;;5092313;28;20382;-58
2022/10/04 12:23:57;;;;;;;7.80;3.10;;;21.30;99.90;;;;;;5092463;28;20384;-58
2022/10/04 12:26:47;;;;;;;8.90;3.38;;;21.30;99.90;;;;;;5091459;28;20973;-58
2022/10/04 12:29:44;;;;;;;8.00;3.40;;;21.10;99.90;;;;;;5091253;28;20374;-58
2022/10/04 12:32:19;;;;;;;9.77;3.70;;;21.20;99.90;;;;;;5090715;28;20430;-58
2022/10/04 12:35:09;;;;;;;8.13;2.95;;;21.60;99.90;;;;;;5091113;28;20414;-57
2022/10/04 12:38:00;;;;;;;9.50;3.33;;;21.60;99.90;;;;;;5092031;28;20423;-58
2022/10/04 12:40:55;;;;;;;7.80;3.17;;;21.60;99.90;;;;;;5053000;28;20390;-58
2022/10/04 12:43:41;;;;;;;7.38;3.08;;;21.50;99.90;;;;;;5090974;28;20370;-58
2022/10/04 12:46:22;;;;;;;7.70;3.20;;;21.50;99.90;;;;;;5091338;28;20432;-58
2022/10/04 12:49:13;;;;;;;8.90;3.72;;;21.40;99.90;;;;;;5091597;28;20401;-58
2022/10/04 12:51:51;;;;;;;10.95;3.40;;;21.50;99.90;;;;;;5091445;28;20931;-58
2022/10/04 12:54:52;;;;;;;8.10;3.20;;;21.40;99.90;;;;;;5090638;28;20771;-58
2022/10/04 12:57:32;;;;;;;8.05;3.30;;;21.30;99.90;;;;;;5090728;28;20381;-57
2022/10/04 13:00:21;;;;;;;7.13;3.35;;;21.20;99.90;;;;;;5091621;28;20457;-58
2022/10/04 13:02:53;;;;;;;9.57;3.10;;;21.40;99.90;;;;;;5091534;28;20398;-57
2022/10/04 13:05:40;;;;;;;8.32;2.60;;;21.40;99.90;;;;;;5090734;28;20382;-57
2022/10/04 13:08:44;;;;;;;8.63;3.08;;;21.60;99.90;;;;;;5106691;28;20818;-58
2022/10/04 13:11:57;;;;;;;6.70;2.83;;;21.50;99.90;;;;;;5090588;28;20432;-58
2022/10/04 13:14:54;;;;;;;7.63;3.20;;;21.60;99.90;;;;;;5089977;28;20409;-57
2022/10/04 13:17:23;;;;;;;10.10;3.00;;;21.70;99.90;;;;;;5090676;28;20381;-58
2022/10/04 13:20:03;;;;;;;7.45;2.60;;;21.80;99.90;;;;;;5091148;28;20386;-58
2022/10/04 13:22:29;;;;;;;9.85;3.17;;;21.90;99.90;;;;;;5090611;28;20743;-57
2022/10/04 13:25:17;;;;;;;7.10;2.75;;;21.80;99.90;;;;;;5090306;28;20412;-57
2022/10/04 13:28:04;;;;;;;8.85;3.13;;;21.90;99.90;;;;;;5089702;28;20788;-58
2022/10/04 13:31:00;;;;;;;8.82;3.10;;;21.90;99.90;;;;;;5089783;28;20413;-57
2022/10/04 13:33:46;;;;;;;7.10;3.20;;;21.60;99.90;;;;;;5068215;28;21108;-58
2022/10/04 13:36:28;;;;;;;7.45;3.03;;;21.50;99.90;;;;;;5090069;28;20385;-58
2022/10/04 13:39:06;;;;;;;8.32;2.90;;;21.70;99.90;;;;;;5076130;28;20865;-58
2022/10/04 13:41:34;;;;;;;8.43;2.85;;;21.80;99.90;;;;;;5079411;28;20403;-58
2022/10/04 13:44:18;;;;;;;9.32;2.90;;;21.80;99.90;;;;;;5070451;28;20383;-58
2022/10/04 13:47:03;;;;;;;11.50;3.30;;;21.60;99.90;;;;;;5070570;28;20372;-59
2022/10/04 13:49:54;;;;;;;8.18;2.60;;;21.60;99.90;;;;;;5070076;28;20415;-63
2022/10/04 13:58:51;;;;;;;7.82;3.00;;;21.70;99.90;;;;;;5060718;28;20396;-63
2022/10/04 14:01:17;;;;;;;6.90;2.70;;;21.70;99.90;;;;;;5085913;28;20386;-62
2022/10/04 14:04:08;;;;;;;8.20;2.90;;;21.70;99.90;;;;;;5090004;28;20751;-63
2022/10/04 14:07:06;;;;;;;6.90;2.65;;;21.70;99.90;;;;;;5090344;28;20500;-62
2022/10/04 14:10:08;;;;;;;7.80;2.70;;;21.70;99.90;;;;;;5088122;28;20417;-62
2022/10/04 14:13:02;;;;;;;7.80;2.80;;;21.80;99.90;;;;;;5089193;28;20902;-62
2022/10/04 14:15:37;;;;;;;9.13;2.77;;;21.80;99.90;;;;;;5031901;28;20391;-62